METAR AND TAF INFORMATION
METAR FOR OTBD
ADDS - METARS form results

(2349 UTC 25 April 2019)
Data provider http://aviationweather.gov/metar/data/
 
METAR text: OTBD 252330Z AUTO 28004KT 240V310 CAVOK 21/10 Q1013 NOSIG
Conditions at: OTBD (DOHA INTL AIRPOR, QA) observed 2330 UTC 25 April 2019
Temperature: 21.0°C (70°F)
Dewpoint: 10.0°C (50°F) [RH = 49%]
Pressure (altimeter): 29.91 inches Hg (1013.0 mb)
Winds: from the W (280 degrees) at 5 MPH (4 knots; 2.1 m/s)
Visibility: 6 or more miles (10+ km)
Ceiling: ceiling and visibility are OK
Clouds: unknown
Weather: no significant weather observed at this time

METAR text: OTBD 252300Z AUTO 25004KT 200V310 CAVOK 22/09 Q1013 NOSIG
Conditions at: OTBD (DOHA INTL AIRPOR, QA) observed 2300 UTC 25 April 2019
Temperature: 22.0°C (72°F)
Dewpoint: 9.0°C (48°F) [RH = 43%]
Pressure (altimeter): 29.91 inches Hg (1013.0 mb)
Winds: from the WSW (250 degrees) at 5 MPH (4 knots; 2.1 m/s)
Visibility: 6 or more miles (10+ km)
Ceiling: ceiling and visibility are OK
Clouds: unknown
Weather: no significant weather observed at this time

Forecast for: OTBD (DOHA INTL AIRPOR, QA)
Text: TAF OTBD 252301Z 2600/2706 30007KT CAVOK
Forecast period: 0000 to 0600 UTC 26 April 2019
Forecast type: FROM: standard forecast or significant change
Winds: from the WNW (300 degrees) at 8 MPH (7 knots; 3.6 m/s)
Visibility: 6 or more miles 10+ km)
Ceiling: unknown
Clouds: missing
Weather: NSW  (no significant weather)
Text: BECMG 2606/2608 36012KT
Forecast period: 0600 to 1700 UTC 26 April 2019
Forecast type: BECOMING: Conditions expected to become as follows by 0800 UTC 26 April 2019
Winds: from the N (360 degrees) at 14 MPH (12 knots; 6.2 m/s)
Visibility: 6 or more miles 10+ km)
Ceiling: unknown
Clouds: missing
Weather: NSW  (no significant weather)
Text: BECMG 2617/2619 30006KT
Forecast period: 1700 UTC 26 April 2019 to 0600 UTC 27 April 2019
Forecast type: BECOMING: Conditions expected to become as follows by 1900 UTC 26 April 2019
Winds: from the WNW (300 degrees) at 7 MPH (6 knots; 3.1 m/s)
Visibility: 6 or more miles 10+ km)
Ceiling: unknown
Clouds: missing
Weather: NSW  (no significant weather)

 AIRPORT MAP

 RUNWAY INFORMATION
Runway 15 Runway length 15000 ft Runway width 151 ft
Runway elevation 35 ft Runway displaced threshold 2460 ft Runway heading 158
Runway 33 Runway length 15000 ft Runway width 151 ft
Runway elevation 25 ft Runway displaced threshold 0 ft Runway heading 338

 AIRPORT FREQUENCIES
Type APP Name APP Frequency 121.1 MHZ
Type ATIS Name ATIS Frequency 126.45 MHZ
Type GND Name GND Frequency 118.275 MHZ
Type OPS Name KINGFISH N Frequency 139.5 MHZ
Type TWR Name TWR Frequency 118.9 MHZ

 AIRPORT NEAR NAVIGATION AIDS
Type VOR-DME Name Doha Frequency 112400 KHZ
Type NDB Name Wk Frequency 323 KHZ



Air Dominicana VA